Time;durP1;ratioP1;P1;durP2;ratioP2;P2;SDS_P1;SDS_P2;PMS_P1;PMS_P2;Temp;Humidity;BMP_temperature;BMP_pressure;BME280_temperature;BME280_humidity;BME280_pressure;Samples;Min_cycle;Max_cycle;Signal;HPM_P1;HPM_P2
2021/12/06 00:00:16;;;;;;;6.95;2.92;;;1.50;99.90;;;;;;5093077;28;20281;-63
2021/12/06 00:02:44;;;;;;;8.05;2.35;;;1.50;99.90;;;;;;5092856;28;20044;-63
2021/12/06 00:05:12;;;;;;;4.90;2.70;;;1.50;99.90;;;;;;5092656;28;20116;-63
2021/12/06 00:07:40;;;;;;;6.78;2.83;;;1.50;99.90;;;;;;5092819;28;20043;-63
2021/12/06 00:10:09;;;;;;;6.40;2.60;;;1.50;99.90;;;;;;5090327;28;20508;-62
2021/12/06 00:12:36;;;;;;;7.28;3.28;;;1.50;99.90;;;;;;5093052;28;20503;-62
2021/12/06 00:15:04;;;;;;;4.93;2.97;;;1.50;99.90;;;;;;5093026;28;20496;-63
2021/12/06 00:17:31;;;;;;;6.93;3.10;;;1.40;99.90;;;;;;5093000;28;20115;-63
2021/12/06 00:19:58;;;;;;;10.15;4.22;;;1.40;99.90;;;;;;5090313;28;20543;-63
2021/12/06 00:22:25;;;;;;;5.97;3.17;;;1.40;99.90;;;;;;5089884;28;20036;-62
2021/12/06 00:24:54;;;;;;;7.50;3.03;;;1.40;99.90;;;;;;5090755;28;20404;-62
2021/12/06 00:27:22;;;;;;;7.22;2.50;;;1.50;99.90;;;;;;5058560;28;20111;-62
2021/12/06 00:29:50;;;;;;;6.15;3.15;;;1.50;99.90;;;;;;5069607;28;20519;-63
2021/12/06 00:32:17;;;;;;;7.70;2.75;;;1.50;99.90;;;;;;5089758;28;20123;-63
2021/12/06 00:34:44;;;;;;;7.28;2.60;;;1.50;99.90;;;;;;5090366;28;20411;-62
2021/12/06 00:37:29;;;;;;;3.42;1.60;;;1.50;99.90;;;;;;5073858;28;20040;-63
2021/12/06 00:39:59;;;;;;;3.15;2.00;;;1.50;99.90;;;;;;5072815;28;20143;-63
2021/12/06 00:42:30;;;;;;;3.10;1.80;;;1.40;99.90;;;;;;5089609;28;20047;-62
2021/12/06 00:44:58;;;;;;;3.45;1.98;;;1.50;99.90;;;;;;5090623;28;20373;-63
2021/12/06 00:47:25;;;;;;;6.63;2.08;;;1.40;99.90;;;;;;5073555;28;20043;-62
2021/12/06 00:49:52;;;;;;;5.13;2.47;;;1.40;99.90;;;;;;5090542;28;20598;-63
2021/12/06 00:52:20;;;;;;;;;;;1.40;99.90;;;;;;5089845;28;20051;-62
2021/12/06 00:54:48;;;;;;;3.47;1.73;;;1.40;99.90;;;;;;5090448;28;19974;-63
2021/12/06 00:57:15;;;;;;;6.07;2.13;;;1.40;99.90;;;;;;5073370;28;20040;-63
2021/12/06 00:59:43;;;;;;;6.78;2.10;;;1.40;99.90;;;;;;5090383;28;20048;-62
2021/12/06 01:02:12;;;;;;;4.47;2.17;;;1.40;99.90;;;;;;5089426;28;20047;-63
2021/12/06 01:04:40;;;;;;;6.60;2.35;;;1.30;99.90;;;;;;5071895;28;20039;-63
2021/12/06 01:07:09;;;;;;;4.63;1.80;;;1.30;99.90;;;;;;5072864;28;20075;-63
2021/12/06 01:09:36;;;;;;;5.40;2.45;;;1.30;99.90;;;;;;5072689;28;20044;-63
2021/12/06 01:12:04;;;;;;;5.88;2.58;;;1.30;99.90;;;;;;5064190;28;20072;-63
2021/12/06 01:14:31;;;;;;;4.82;3.00;;;1.30;99.90;;;;;;5091100;28;20399;-62
2021/12/06 01:16:58;;;;;;;3.85;2.15;;;1.40;99.90;;;;;;5085281;28;20057;-63
2021/12/06 01:19:29;;;;;;;8.93;2.25;;;1.30;99.90;;;;;;5073353;28;20040;-62
2021/12/06 01:24:48;;;;;;;4.20;1.88;;;1.40;99.90;;;;;;5090606;28;20054;-62
2021/12/06 01:40:32;;;;;;;3.50;1.70;;;1.40;99.90;;;;;;5073625;28;20134;-62
2021/12/06 01:43:03;;;;;;;;;;;1.40;99.90;;;;;;5092303;28;20074;-62
2021/12/06 01:45:31;;;;;;;3.17;1.67;;;1.40;99.90;;;;;;5089909;28;19985;-63
2021/12/06 01:47:58;;;;;;;2.75;1.38;;;1.40;99.90;;;;;;5091695;28;20530;-62
2021/12/06 01:50:30;;;;;;;3.38;1.45;;;1.40;99.90;;;;;;5091671;28;20036;-63
2021/12/06 01:53:00;;;;;;;3.45;1.33;;;1.40;99.90;;;;;;5091715;28;20451;-63
2021/12/06 01:55:32;;;;;;;3.08;1.45;;;1.50;99.90;;;;;;5073087;28;20040;-62
2021/12/06 01:58:00;;;;;;;4.05;1.20;;;1.50;99.90;;;;;;5073225;28;20132;-62
2021/12/06 02:00:37;;;;;;;4.10;1.20;;;1.40;99.90;;;;;;5073447;28;20046;-63
2021/12/06 02:03:09;;;;;;;4.70;1.00;;;1.40;99.90;;;;;;5073509;28;20044;-63
2021/12/06 02:05:42;;;;;;;4.03;1.10;;;1.40;99.90;;;;;;5072977;28;20411;-63
2021/12/06 02:08:12;;;;;;;2.33;1.20;;;1.40;99.90;;;;;;5073389;28;20040;-63
2021/12/06 02:10:40;;;;;;;1.52;0.82;;;1.30;99.90;;;;;;5073032;28;20067;-62
2021/12/06 02:13:11;;;;;;;4.95;2.33;;;1.30;99.90;;;;;;5073486;28;20044;-63
2021/12/06 02:15:47;;;;;;;4.90;1.58;;;1.30;99.90;;;;;;5091258;28;20048;-62
2021/12/06 02:18:39;;;;;;;3.85;1.15;;;1.20;99.90;;;;;;5090187;28;20411;-63
2021/12/06 02:21:29;;;;;;;5.90;1.70;;;1.10;99.90;;;;;;5073130;28;20044;-63
2021/12/06 02:23:58;;;;;;;3.35;1.52;;;1.10;99.90;;;;;;5091268;28;20036;-62
2021/12/06 02:26:25;;;;;;;3.40;1.58;;;1.00;99.90;;;;;;5072552;28;20110;-62
2021/12/06 02:28:54;;;;;;;2.72;1.00;;;1.00;99.90;;;;;;5073257;28;20048;-63
2021/12/06 02:31:24;;;;;;;4.53;1.50;;;1.00;99.90;;;;;;5076848;28;20048;-62
2021/12/06 02:33:53;;;;;;;3.67;1.23;;;1.10;99.90;;;;;;5077012;28;20097;-63
2021/12/06 02:36:23;;;;;;;2.70;0.60;;;1.10;99.90;;;;;;5076425;28;20036;-62
2021/12/06 02:38:50;;;;;;;2.05;1.00;;;1.10;99.90;;;;;;5076758;28;20584;-62
2021/12/06 02:41:18;;;;;;;1.63;1.00;;;1.10;99.90;;;;;;5095108;28;20035;-63
2021/12/06 02:43:47;;;;;;;3.22;1.00;;;1.10;99.90;;;;;;5076747;28;20040;-62
2021/12/06 02:46:16;;;;;;;1.48;0.93;;;1.10;99.90;;;;;;5076259;28;20462;-63
2021/12/06 02:48:43;;;;;;;;;;;1.10;99.90;;;;;;5077011;28;20048;-62
2021/12/06 02:51:12;;;;;;;2.13;1.10;;;1.10;99.90;;;;;;5093562;28;19920;-63
2021/12/06 02:53:39;;;;;;;2.30;1.20;;;1.20;99.90;;;;;;5076540;28;20036;-63
2021/12/06 02:56:17;;;;;;;;;;;1.10;99.90;;;;;;5094790;28;20040;-62
2021/12/06 02:58:56;;;;;;;1.67;0.85;;;1.10;99.90;;;;;;5076884;28;19942;-62
2021/12/06 03:01:34;;;;;;;4.13;1.05;;;1.00;99.90;;;;;;5076379;28;20044;-62
2021/12/06 03:04:04;;;;;;;1.38;1.00;;;0.90;99.90;;;;;;5093410;28;20044;-62
2021/12/06 03:06:32;;;;;;;1.73;0.93;;;1.00;99.90;;;;;;5075969;28;20106;-62
2021/12/06 03:09:22;;;;;;;1.70;0.95;;;1.00;99.90;;;;;;5076214;28;20048;-63
2021/12/06 03:11:52;;;;;;;1.45;0.70;;;1.00;99.90;;;;;;5076091;28;20045;-63
2021/12/06 03:14:23;;;;;;;1.95;1.00;;;1.00;99.90;;;;;;5094484;28;20041;-62
2021/12/06 03:16:56;;;;;;;1.23;0.75;;;0.90;99.90;;;;;;5075823;28;20044;-62
2021/12/06 03:19:24;;;;;;;2.03;0.70;;;1.00;99.90;;;;;;5093708;28;20039;-62
2021/12/06 03:21:51;;;;;;;1.95;0.85;;;0.90;99.90;;;;;;5075995;28;20040;-62
2021/12/06 03:24:20;;;;;;;2.80;1.30;;;0.90;99.90;;;;;;5075912;28;20446;-62
2021/12/06 03:26:48;;;;;;;3.78;0.90;;;1.00;99.90;;;;;;5075443;28;20044;-62
2021/12/06 03:29:15;;;;;;;1.08;0.43;;;1.00;99.90;;;;;;5076057;28;20681;-62
2021/12/06 03:31:43;;;;;;;4.68;0.90;;;1.00;99.90;;;;;;5075825;28;20052;-62
2021/12/06 03:34:11;;;;;;;0.50;0.45;;;1.00;99.90;;;;;;5075773;28;20619;-62
2021/12/06 03:36:39;;;;;;;2.03;0.98;;;1.00;99.90;;;;;;5075385;28;20040;-62
2021/12/06 03:39:13;;;;;;;3.28;0.77;;;1.00;99.90;;;;;;5075699;28;20535;-62
2021/12/06 03:41:41;;;;;;;1.92;0.90;;;0.90;99.90;;;;;;5075302;28;20044;-62
2021/12/06 03:44:08;;;;;;;;;;;0.90;99.90;;;;;;5076210;28;20055;-62
2021/12/06 03:46:36;;;;;;;4.43;0.90;;;0.90;99.90;;;;;;5075056;28;19931;-62
2021/12/06 03:49:11;;;;;;;1.95;0.93;;;0.90;99.90;;;;;;5075733;28;20419;-62
2021/12/06 03:51:39;;;;;;;1.70;0.80;;;0.90;99.90;;;;;;5092383;28;20037;-63
2021/12/06 03:54:06;;;;;;;;;;;0.90;99.90;;;;;;5075869;28;20078;-62
2021/12/06 03:56:38;;;;;;;3.17;1.10;;;0.90;99.90;;;;;;5075058;28;19924;-62
2021/12/06 03:59:05;;;;;;;1.33;0.70;;;1.00;99.90;;;;;;5075295;28;20056;-62
2021/12/06 04:01:32;;;;;;;1.77;0.93;;;1.00;99.90;;;;;;5075230;28;20492;-62
2021/12/06 04:04:01;;;;;;;5.32;1.08;;;1.00;99.90;;;;;;5075390;28;20101;-62
2021/12/06 04:06:29;;;;;;;1.98;0.85;;;0.90;99.90;;;;;;5074797;28;20044;-62
2021/12/06 04:08:56;;;;;;;4.95;1.02;;;1.00;99.90;;;;;;5075263;28;20048;-62
2021/12/06 04:11:24;;;;;;;3.90;1.60;;;1.00;99.90;;;;;;5075041;28;20050;-62
2021/12/06 04:13:51;;;;;;;5.20;2.33;;;1.00;99.90;;;;;;5093338;28;20565;-62
2021/12/06 04:16:19;;;;;;;7.60;3.40;;;1.00;99.90;;;;;;5074549;28;20047;-62
2021/12/06 04:18:47;;;;;;;7.63;3.58;;;1.10;99.90;;;;;;5075101;28;20416;-62
2021/12/06 04:21:14;;;;;;;7.35;3.88;;;1.10;99.90;;;;;;5074871;28;20516;-62
2021/12/06 04:23:41;;;;;;;9.98;4.50;;;1.10;99.90;;;;;;5074879;28;20056;-62
2021/12/06 04:26:09;;;;;;;9.70;4.60;;;1.10;99.90;;;;;;5091250;28;20040;-62
2021/12/06 04:28:42;;;;;;;11.02;6.13;;;1.00;99.90;;;;;;5093034;28;20040;-63
2021/12/06 04:31:10;;;;;;;12.77;5.88;;;1.00;99.90;;;;;;5091692;28;20101;-62
2021/12/06 04:33:37;;;;;;;20.30;6.45;;;1.10;99.90;;;;;;5074537;28;20036;-62
2021/12/06 04:36:05;;;;;;;;;;;1.10;99.90;;;;;;5092726;28;20123;-62
2021/12/06 04:38:32;;;;;;;10.02;4.03;;;1.20;99.90;;;;;;5074548;28;19920;-62
2021/12/06 04:41:03;;;;;;;5.57;3.42;;;1.20;99.90;;;;;;5074593;28;20060;-62
2021/12/06 04:43:30;;;;;;;4.35;2.13;;;1.20;99.90;;;;;;5074412;28;20047;-62
2021/12/06 04:45:59;;;;;;;5.82;2.70;;;1.10;99.90;;;;;;5073987;28;20036;-62
2021/12/06 04:48:26;;;;;;;9.25;3.25;;;1.10;99.90;;;;;;5074520;28;20044;-62
2021/12/06 04:50:53;;;;;;;6.25;2.95;;;1.00;99.90;;;;;;5074344;28;20097;-62
2021/12/06 04:53:26;;;;;;;5.53;2.90;;;0.90;99.90;;;;;;5073429;28;20040;-62
2021/12/06 04:56:03;;;;;;;5.25;2.97;;;0.90;99.90;;;;;;5073811;28;20051;-62
2021/12/06 04:58:39;;;;;;;11.80;4.28;;;0.90;99.90;;;;;;5074295;28;20040;-62
2021/12/06 05:01:09;;;;;;;8.07;2.75;;;1.00;99.90;;;;;;5074165;28;20515;-62
2021/12/06 05:03:39;;;;;;;8.35;3.47;;;1.00;99.90;;;;;;5073908;28;20428;-62
2021/12/06 05:06:15;;;;;;;7.93;3.95;;;1.00;99.90;;;;;;5073685;28;20040;-62
2021/12/06 05:08:48;;;;;;;11.73;3.92;;;1.00;99.90;;;;;;5074202;28;20035;-62
2021/12/06 05:11:15;;;;;;;9.85;4.20;;;1.00;99.90;;;;;;5073955;28;20059;-62
2021/12/06 05:13:45;;;;;;;8.48;4.53;;;1.00;99.90;;;;;;5092237;28;20036;-62
2021/12/06 05:16:14;;;;;;;34.50;4.90;;;0.90;99.90;;;;;;5073251;28;20044;-62
2021/12/06 05:18:43;;;;;;;95.03;10.07;;;0.90;99.90;;;;;;5074081;28;20048;-62
2021/12/06 05:21:09;;;;;;;7.22;3.78;;;1.00;99.90;;;;;;5073901;28;20117;-62
2021/12/06 05:23:37;;;;;;;14.88;5.93;;;1.00;99.90;;;;;;5073907;28;20068;-62
2021/12/06 05:26:05;;;;;;;16.90;8.27;;;1.00;99.90;;;;;;5073229;28;20066;-63
2021/12/06 05:28:39;;;;;;;19.13;8.57;;;1.00;99.90;;;;;;5073967;28;20055;-62
2021/12/06 05:31:14;;;;;;;22.15;7.93;;;1.00;99.90;;;;;;5073118;28;20044;-62
2021/12/06 05:33:44;;;;;;;20.95;8.02;;;1.00;99.90;;;;;;5073868;28;20050;-62
2021/12/06 05:36:11;;;;;;;22.20;9.45;;;1.00;99.90;;;;;;5105134;22;20105;-64
2021/12/06 05:38:39;;;;;;;22.13;9.43;;;1.00;99.90;;;;;;5090909;28;20097;-64
2021/12/06 05:41:06;;;;;;;23.45;9.82;;;1.00;99.90;;;;;;5091096;28;20093;-64
2021/12/06 05:43:33;;;;;;;19.42;9.27;;;1.10;99.90;;;;;;5091848;28;20488;-64
2021/12/06 05:46:02;;;;;;;20.58;9.52;;;1.00;99.90;;;;;;5091262;28;20058;-64
2021/12/06 05:48:29;;;;;;;26.30;10.68;;;1.00;99.90;;;;;;5079064;28;20098;-64
2021/12/06 05:50:56;;;;;;;;;;;1.00;99.90;;;;;;5088077;28;20040;-64
2021/12/06 05:53:23;;;;;;;23.80;10.52;;;1.00;99.90;;;;;;5081240;28;19958;-63
2021/12/06 05:55:50;;;;;;;26.13;9.73;;;1.00;99.90;;;;;;5081419;28;20045;-63
2021/12/06 05:58:18;;;;;;;;;;;1.10;99.90;;;;;;5085993;28;20496;-63
2021/12/06 06:00:46;;;;;;;17.20;7.15;;;1.10;99.90;;;;;;5091522;28;19920;-60
2021/12/06 06:03:13;;;;;;;24.80;10.13;;;1.10;99.90;;;;;;5091847;28;20086;-61
2021/12/06 06:05:40;;;;;;;25.15;10.50;;;1.10;99.90;;;;;;5095232;28;20087;-60
2021/12/06 06:08:07;;;;;;;25.95;11.75;;;1.10;99.90;;;;;;5095372;28;20105;-60
2021/12/06 06:10:35;;;;;;;34.22;15.70;;;1.10;99.90;;;;;;5077222;28;20040;-61
2021/12/06 06:13:04;;;;;;;26.83;12.20;;;1.10;99.90;;;;;;5095557;28;20036;-60
2021/12/06 06:15:31;;;;;;;31.20;14.38;;;1.10;99.90;;;;;;5095178;28;20427;-60
2021/12/06 06:17:59;;;;;;;27.48;12.05;;;1.10;99.90;;;;;;5095369;28;20051;-61
2021/12/06 06:20:39;;;;;;;24.52;12.15;;;1.10;99.90;;;;;;5095373;28;20044;-61
2021/12/06 06:23:07;;;;;;;26.08;12.10;;;1.10;99.90;;;;;;5095374;28;20058;-60
2021/12/06 06:25:34;;;;;;;23.42;10.95;;;1.10;99.90;;;;;;5094160;28;20518;-60
2021/12/06 06:28:02;;;;;;;26.05;13.27;;;1.10;99.90;;;;;;5084209;28;20036;-62
2021/12/06 06:30:29;;;;;;;29.60;14.73;;;1.10;99.90;;;;;;5086452;28;20044;-60
2021/12/06 06:32:56;;;;;;;;;;;1.10;99.90;;;;;;5092267;28;20506;-60
2021/12/06 06:35:24;;;;;;;34.00;14.38;;;1.20;99.90;;;;;;5094299;28;20207;-62
2021/12/06 06:37:51;;;;;;;33.08;15.63;;;1.10;99.90;;;;;;5095282;28;20044;-61
2021/12/06 06:40:19;;;;;;;32.97;15.38;;;1.10;99.90;;;;;;5095066;28;20492;-62
2021/12/06 06:42:46;;;;;;;35.40;16.02;;;1.10;99.90;;;;;;5094544;28;20123;-60
2021/12/06 06:45:17;;;;;;;39.50;15.98;;;1.20;99.90;;;;;;5075665;28;20040;-60
2021/12/06 06:47:45;;;;;;;35.97;15.35;;;1.20;99.90;;;;;;5073438;28;20068;-60
2021/12/06 06:50:13;;;;;;;35.38;15.93;;;1.20;99.90;;;;;;5074369;28;20094;-61
2021/12/06 06:52:40;;;;;;;38.13;15.73;;;1.20;99.90;;;;;;5090563;28;20373;-62
2021/12/06 06:55:09;;;;;;;44.85;15.45;;;1.20;99.90;;;;;;5093844;28;20051;-62
2021/12/06 06:57:37;;;;;;;31.60;13.82;;;1.10;99.90;;;;;;5078775;28;20090;-62
2021/12/06 07:00:10;;;;;;;38.72;14.52;;;1.10;99.90;;;;;;5074180;28;20550;-62
2021/12/06 07:02:38;;;;;;;35.08;13.88;;;1.10;99.90;;;;;;5074250;28;20075;-62
2021/12/06 07:05:07;;;;;;;37.25;13.55;;;1.10;99.90;;;;;;5074311;28;20412;-62
2021/12/06 07:07:33;;;;;;;33.38;11.70;;;1.10;99.90;;;;;;5074157;28;20044;-62
2021/12/06 07:10:00;;;;;;;29.30;12.57;;;1.10;99.90;;;;;;5074361;28;20052;-62
2021/12/06 07:12:28;;;;;;;24.08;11.27;;;1.10;99.90;;;;;;5076477;28;20051;-63
2021/12/06 07:14:55;;;;;;;;;;;1.10;99.90;;;;;;5074020;28;20051;-63
2021/12/06 07:17:22;;;;;;;24.45;10.68;;;1.10;99.90;;;;;;5073314;28;19994;-63
2021/12/06 07:19:49;;;;;;;18.48;8.18;;;1.10;99.90;;;;;;5074224;28;20037;-62
2021/12/06 07:22:16;;;;;;;40.53;16.50;;;1.10;99.90;;;;;;5074060;28;20044;-63
2021/12/06 07:24:43;;;;;;;33.83;13.85;;;1.10;99.90;;;;;;5073808;28;20040;-62
2021/12/06 07:27:10;;;;;;;31.83;15.40;;;1.00;99.90;;;;;;5080874;28;20094;-62
2021/12/06 07:29:37;;;;;;;36.40;14.95;;;1.00;99.90;;;;;;5074086;28;20528;-63
2021/12/06 07:32:04;;;;;;;;;;;1.10;99.90;;;;;;5073976;28;20378;-62
2021/12/06 07:34:32;;;;;;;31.05;14.25;;;1.10;99.90;;;;;;5055958;28;20487;-62
2021/12/06 07:36:59;;;;;;;31.10;15.38;;;1.20;99.90;;;;;;5073338;28;20071;-63
2021/12/06 07:39:26;;;;;;;33.75;14.95;;;1.20;99.90;;;;;;5073806;28;20072;-63
2021/12/06 07:41:53;;;;;;;28.20;12.95;;;1.30;99.90;;;;;;5073695;28;20044;-62
2021/12/06 07:44:20;;;;;;;28.42;13.23;;;1.40;99.90;;;;;;5073718;28;20574;-63
2021/12/06 07:46:48;;;;;;;32.90;14.80;;;1.40;99.90;;;;;;5072870;28;20067;-63
2021/12/06 07:49:15;;;;;;;35.80;14.98;;;1.40;99.90;;;;;;5073618;28;20048;-62
2021/12/06 07:51:42;;;;;;;32.22;10.93;;;1.50;99.90;;;;;;5073504;28;20048;-62
2021/12/06 07:54:09;;;;;;;23.70;10.15;;;1.50;99.90;;;;;;5073421;28;20132;-63
2021/12/06 07:56:36;;;;;;;23.85;9.93;;;1.50;99.90;;;;;;5072858;28;20044;-63
2021/12/06 07:59:03;;;;;;;27.40;10.18;;;1.50;99.90;;;;;;5073290;28;20123;-63
2021/12/06 08:01:30;;;;;;;22.85;9.43;;;1.50;99.90;;;;;;5085143;28;20515;-62
2021/12/06 08:03:59;;;;;;;;;;;1.50;99.90;;;;;;5094003;28;20051;-63
2021/12/06 08:06:27;;;;;;;24.15;10.13;;;1.50;99.90;;;;;;5093131;28;20397;-63
2021/12/06 08:08:54;;;;;;;35.25;9.63;;;1.50;99.90;;;;;;5093310;28;20149;-63
2021/12/06 08:11:22;;;;;;;25.55;10.50;;;1.50;99.90;;;;;;5093411;28;20447;-63
2021/12/06 08:13:54;;;;;;;22.60;10.50;;;1.60;99.90;;;;;;5093276;28;20041;-63
2021/12/06 08:16:24;;;;;;;23.95;10.35;;;1.60;99.90;;;;;;5092848;28;20488;-63
2021/12/06 08:18:52;;;;;;;22.77;10.43;;;1.60;99.90;;;;;;5093305;28;20036;-63
2021/12/06 08:21:21;;;;;;;34.55;9.60;;;1.70;99.90;;;;;;5093072;28;20085;-63
2021/12/06 08:23:50;;;;;;;20.45;9.90;;;1.70;99.90;;;;;;5093034;28;20050;-63
2021/12/06 08:26:20;;;;;;;22.73;10.00;;;1.70;99.90;;;;;;5092363;28;20044;-63
2021/12/06 08:28:49;;;;;;;30.75;11.10;;;1.80;99.90;;;;;;5092541;28;20040;-63
2021/12/06 08:31:18;;;;;;;26.13;10.50;;;1.70;99.90;;;;;;5092789;28;20075;-63
2021/12/06 08:33:47;;;;;;;24.20;10.88;;;1.80;99.90;;;;;;5092776;28;20044;-63
2021/12/06 08:36:14;;;;;;;20.95;10.20;;;1.80;99.90;;;;;;5092261;28;20065;-63
2021/12/06 08:38:41;;;;;;;26.20;11.80;;;1.80;99.90;;;;;;5092894;28;20044;-63
2021/12/06 08:41:14;;;;;;;25.73;10.60;;;1.80;99.90;;;;;;5092778;28;20036;-63
2021/12/06 08:43:43;;;;;;;32.60;11.60;;;1.80;99.90;;;;;;5080255;28;20430;-63
2021/12/06 08:46:23;;;;;;;31.52;11.35;;;1.80;99.90;;;;;;5071860;28;20068;-62
2021/12/06 08:48:52;;;;;;;29.02;11.68;;;1.90;99.90;;;;;;5072299;28;20070;-63
2021/12/06 08:51:24;;;;;;;26.90;12.05;;;2.00;99.90;;;;;;5072403;28;20501;-63
2021/12/06 08:53:52;;;;;;;28.30;12.10;;;2.10;99.90;;;;;;5072208;28;20409;-63
2021/12/06 08:56:19;;;;;;;;;;;2.20;99.90;;;;;;5072250;28;20045;-63
2021/12/06 08:58:47;;;;;;;24.10;11.02;;;2.30;99.90;;;;;;5072119;28;19920;-63
2021/12/06 09:01:14;;;;;;;20.52;10.20;;;2.30;99.90;;;;;;5072175;28;20037;-63
2021/12/06 09:04:02;;;;;;;26.40;10.85;;;2.40;99.90;;;;;;5080444;28;20126;-63
2021/12/06 09:06:29;;;;;;;25.10;12.48;;;2.60;99.90;;;;;;5082109;28;20048;-63
2021/12/06 09:08:56;;;;;;;20.40;9.68;;;2.60;99.90;;;;;;5087181;28;20044;-63
2021/12/06 09:11:23;;;;;;;24.95;12.38;;;2.70;99.90;;;;;;5092093;28;20063;-63
2021/12/06 09:13:50;;;;;;;58.28;20.95;;;2.60;99.90;;;;;;5092208;28;20040;-63
2021/12/06 09:16:17;;;;;;;29.23;11.80;;;2.70;99.90;;;;;;5091650;28;20070;-63
2021/12/06 09:18:45;;;;;;;29.77;11.95;;;2.70;99.90;;;;;;5092214;28;20157;-63
2021/12/06 09:21:18;;;;;;;25.63;11.95;;;2.60;99.90;;;;;;5092062;28;20040;-63
2021/12/06 09:23:45;;;;;;;26.63;11.00;;;2.70;99.90;;;;;;5092100;28;20044;-62
2021/12/06 09:26:13;;;;;;;26.50;11.73;;;2.70;99.90;;;;;;5091422;28;20048;-63
2021/12/06 09:28:40;;;;;;;23.70;11.23;;;2.80;99.90;;;;;;5091862;28;20044;-62
2021/12/06 09:31:09;;;;;;;26.75;11.88;;;2.80;99.90;;;;;;5092173;28;20404;-63
2021/12/06 09:33:37;;;;;;;22.88;11.10;;;2.90;99.90;;;;;;5091853;28;20408;-63
2021/12/06 09:36:06;;;;;;;22.90;10.38;;;2.90;99.90;;;;;;5091361;28;20075;-63
2021/12/06 09:38:39;;;;;;;28.88;11.48;;;3.00;99.90;;;;;;5076299;28;20053;-61
2021/12/06 09:41:21;;;;;;;23.42;9.90;;;3.00;99.90;;;;;;5071436;28;20102;-63
2021/12/06 09:43:49;;;;;;;23.55;11.43;;;3.10;99.90;;;;;;5071510;28;20074;-62
2021/12/06 09:46:18;;;;;;;27.67;12.23;;;3.10;99.90;;;;;;5071098;28;20070;-61
2021/12/06 09:48:47;;;;;;;26.85;11.82;;;3.10;99.90;;;;;;5071387;28;20071;-62
2021/12/06 09:51:21;;;;;;;23.42;11.35;;;3.00;99.90;;;;;;5071366;28;20072;-61
2021/12/06 09:53:49;;;;;;;27.48;11.18;;;3.00;99.90;;;;;;5071549;28;20036;-63
2021/12/06 09:56:33;;;;;;;29.92;12.68;;;3.10;99.90;;;;;;5071239;28;20036;-63
2021/12/06 09:59:05;;;;;;;34.58;13.68;;;3.10;99.90;;;;;;5071455;28;20488;-63
2021/12/06 10:01:38;;;;;;;27.13;12.30;;;3.20;99.90;;;;;;5071201;28;20048;-62
2021/12/06 10:04:08;;;;;;;27.77;12.90;;;3.30;99.90;;;;;;5071493;28;20538;-63
2021/12/06 10:06:35;;;;;;;23.25;11.75;;;3.30;99.90;;;;;;5070845;28;20072;-62
2021/12/06 10:09:04;;;;;;;;;;;3.30;99.90;;;;;;5076381;28;20098;-62
2021/12/06 10:11:32;;;;;;;26.90;11.13;;;3.20;99.90;;;;;;5088509;28;19955;-63
2021/12/06 10:13:59;;;;;;;;;;;3.20;99.90;;;;;;5091515;28;20040;-61
2021/12/06 10:16:27;;;;;;;27.55;11.30;;;3.30;99.90;;;;;;5089850;28;20374;-60
2021/12/06 10:18:55;;;;;;;27.85;11.77;;;3.30;99.90;;;;;;5091457;28;20448;-63
2021/12/06 10:21:24;;;;;;;;;;;3.30;99.90;;;;;;5091986;28;20044;-61
2021/12/06 10:23:51;;;;;;;24.00;10.60;;;3.30;99.90;;;;;;5091388;28;19945;-63
2021/12/06 10:26:22;;;;;;;26.45;11.18;;;3.30;99.90;;;;;;5090617;28;20492;-63
2021/12/06 10:28:58;;;;;;;23.98;11.43;;;3.30;99.90;;;;;;5091624;28;20097;-63
2021/12/06 10:31:26;;;;;;;26.80;11.65;;;3.30;99.90;;;;;;5089696;28;20044;-61
2021/12/06 10:33:55;;;;;;;36.72;11.25;;;3.20;99.90;;;;;;5091109;28;20070;-61
2021/12/06 10:36:24;;;;;;;32.15;12.10;;;3.10;99.90;;;;;;5090306;28;20044;-61
2021/12/06 10:38:58;;;;;;;21.33;11.48;;;3.20;99.90;;;;;;5090838;28;20044;-60
2021/12/06 10:41:26;;;;;;;25.02;10.77;;;3.20;99.90;;;;;;5091314;28;20066;-61
2021/12/06 10:44:00;;;;;;;29.10;12.70;;;3.20;99.90;;;;;;5090919;28;20052;-61
2021/12/06 10:46:31;;;;;;;26.88;11.45;;;3.20;99.90;;;;;;5090538;28;20389;-61
2021/12/06 10:49:03;;;;;;;25.55;12.57;;;3.30;99.90;;;;;;5066111;28;20045;-60
2021/12/06 10:51:34;;;;;;;25.70;11.68;;;3.30;99.90;;;;;;5082208;28;20062;-60
2021/12/06 10:54:09;;;;;;;25.38;11.60;;;3.30;99.90;;;;;;5073202;28;20397;-61
2021/12/06 10:56:44;;;;;;;28.23;11.65;;;3.40;99.90;;;;;;5072473;28;20428;-60
2021/12/06 10:59:15;;;;;;;24.70;12.27;;;3.50;99.90;;;;;;5074050;28;20107;-60
2021/12/06 11:01:43;;;;;;;26.85;11.90;;;3.60;99.90;;;;;;5073833;28;20040;-60
2021/12/06 11:04:14;;;;;;;28.35;12.40;;;3.60;99.90;;;;;;5073806;28;20078;-60
2021/12/06 11:06:45;;;;;;;32.50;13.07;;;3.50;99.90;;;;;;5073787;28;20037;-60
2021/12/06 11:09:16;;;;;;;33.70;12.73;;;3.50;99.90;;;;;;5074047;28;20055;-60
2021/12/06 11:11:58;;;;;;;25.83;12.05;;;3.40;99.90;;;;;;5073827;28;20102;-60
2021/12/06 11:14:32;;;;;;;38.55;12.82;;;3.30;99.90;;;;;;5081969;28;20119;-60
2021/12/06 11:17:19;;;;;;;29.58;12.43;;;3.30;99.90;;;;;;5084452;28;20150;-60
2021/12/06 11:19:51;;;;;;;32.50;13.38;;;3.20;99.90;;;;;;5083369;28;20036;-60
2021/12/06 11:22:21;;;;;;;32.33;13.85;;;3.20;99.90;;;;;;5083024;28;20054;-60
2021/12/06 11:24:51;;;;;;;41.28;16.50;;;3.20;99.90;;;;;;5082876;28;20048;-60
2021/12/06 11:27:25;;;;;;;34.95;16.00;;;3.10;99.90;;;;;;5082503;28;20491;-60
2021/12/06 11:30:00;;;;;;;32.00;15.75;;;2.90;99.90;;;;;;5083649;28;20044;-60
2021/12/06 11:32:33;;;;;;;30.02;14.45;;;2.80;99.90;;;;;;5083063;28;20051;-60
2021/12/06 11:35:10;;;;;;;32.35;15.13;;;2.80;99.90;;;;;;5082220;28;20443;-57
2021/12/06 11:37:39;;;;;;;37.13;16.50;;;3.00;99.90;;;;;;5122523;22;20112;-61
2021/12/06 11:40:25;;;;;;;33.42;14.40;;;3.00;99.90;;;;;;5111702;28;20089;-61
2021/12/06 11:43:12;;;;;;;29.90;14.13;;;3.10;99.90;;;;;;5111866;28;20035;-61
2021/12/06 11:45:49;;;;;;;27.35;14.00;;;3.10;99.90;;;;;;5112382;28;20062;-61
2021/12/06 11:48:19;;;;;;;24.58;12.63;;;3.00;99.90;;;;;;5112360;28;20036;-61
2021/12/06 11:50:55;;;;;;;27.73;11.57;;;3.00;99.90;;;;;;5111080;28;20100;-61
2021/12/06 11:53:29;;;;;;;18.38;9.77;;;3.00;99.90;;;;;;5113436;28;20402;-61
2021/12/06 11:56:00;;;;;;;19.13;9.75;;;3.00;99.90;;;;;;5113190;28;20119;-61
2021/12/06 11:58:31;;;;;;;20.75;10.32;;;3.10;99.90;;;;;;5111314;28;20088;-61
2021/12/06 12:01:15;;;;;;;22.10;10.20;;;3.20;99.90;;;;;;5113532;28;20047;-61
2021/12/06 12:03:50;;;;;;;24.35;9.98;;;3.30;99.90;;;;;;5113049;28;20487;-61
2021/12/06 12:06:30;;;;;;;13.98;7.78;;;3.30;99.90;;;;;;5112960;28;20118;-61
2021/12/06 12:09:19;;;;;;;13.25;7.38;;;3.40;99.90;;;;;;5112419;28;20044;-61
2021/12/06 12:12:07;;;;;;;15.05;7.82;;;3.50;99.90;;;;;;5113861;28;20048;-61
2021/12/06 12:14:38;;;;;;;21.50;9.52;;;3.70;99.90;;;;;;5113586;28;20067;-62
2021/12/06 12:17:21;;;;;;;17.58;8.25;;;3.80;99.90;;;;;;5113163;28;20043;-61
2021/12/06 12:19:50;;;;;;;23.80;11.52;;;3.90;99.90;;;;;;5113654;28;20035;-59
2021/12/06 12:22:19;;;;;;;28.58;13.35;;;4.00;99.90;;;;;;5113597;28;20097;-55
2021/12/06 12:24:50;;;;;;;20.65;9.73;;;4.10;99.90;;;;;;5113451;28;20138;-63
2021/12/06 12:27:38;;;;;;;27.45;12.13;;;4.20;99.90;;;;;;5098699;28;20478;-63
2021/12/06 12:30:06;;;;;;;19.48;10.40;;;4.10;99.90;;;;;;5092820;28;20516;-64
2021/12/06 12:32:33;;;;;;;23.02;10.50;;;4.00;99.90;;;;;;5092736;28;20082;-64
2021/12/06 12:35:07;;;;;;;20.20;10.68;;;3.90;99.90;;;;;;5092627;28;20044;-67
2021/12/06 12:37:36;;;;;;;17.73;8.85;;;3.80;99.90;;;;;;5092397;28;20044;-66
2021/12/06 12:40:12;;;;;;;19.20;9.75;;;3.80;99.90;;;;;;5092211;28;20044;-64
2021/12/06 12:43:04;;;;;;;18.75;9.73;;;3.70;99.90;;;;;;5101818;28;20080;-64
2021/12/06 12:45:40;;;;;;;17.85;9.82;;;3.60;99.90;;;;;;5111237;28;20054;-64
2021/12/06 12:48:08;;;;;;;18.55;9.00;;;3.50;99.90;;;;;;5111036;28;20092;-67
2021/12/06 12:50:34;;;;;;;15.18;8.38;;;3.30;99.90;;;;;;5112062;28;20789;-67
2021/12/06 12:53:17;;;;;;;16.02;8.65;;;3.10;99.90;;;;;;5112857;28;20044;-66
2021/12/06 12:55:49;;;;;;;19.67;8.75;;;3.00;99.90;;;;;;5112286;28;20054;-64
2021/12/06 12:58:25;;;;;;;18.23;9.25;;;2.80;99.90;;;;;;5112769;28;20077;-65
2021/12/06 13:01:08;;;;;;;19.73;9.07;;;2.80;99.90;;;;;;5112180;28;20044;-64
2021/12/06 13:03:52;;;;;;;13.93;8.13;;;2.80;99.90;;;;;;5112798;28;20043;-63
2021/12/06 13:06:32;;;;;;;16.92;8.60;;;2.70;99.90;;;;;;5112279;28;20050;-64
2021/12/06 13:09:08;;;;;;;16.35;8.18;;;2.70;99.90;;;;;;5112734;28;20047;-64
2021/12/06 13:11:47;;;;;;;23.02;11.30;;;2.60;99.90;;;;;;5112454;28;20415;-63
2021/12/06 13:14:37;;;;;;;24.17;11.80;;;2.60;99.90;;;;;;5111916;28;20039;-64
2021/12/06 13:17:08;;;;;;;17.35;9.60;;;2.70;99.90;;;;;;5093788;28;20424;-60
2021/12/06 13:19:55;;;;;;;21.13;10.63;;;2.60;99.90;;;;;;5112191;28;20046;-61
2021/12/06 13:22:31;;;;;;;18.52;10.23;;;2.70;99.90;;;;;;5112276;28;20100;-69